Tiempo atmosférico en la estación meteorológica de Cabo Busto, Asturias (63 m.)



Fecha
DESCASC
Temp. máxima en grados centígrados (hora)
DESCASC
Temp. mínima en grados centígrados (hora)
DESCASC
Temp. media en grados centígrados
DESCASC
Racha de viento máxima en m/sg (hora)
DESCASC
Velocidad máxima media en intervalos de 10 minutos(hora)
DESCASC
Precipitaciones diarias en mm
DESCASC
Precipitaciones de 00:00 a 06:00 en mm
DESCASC
Precipitaciones de 06:00 a 12:00 en mm
DESCASC
Precipitaciones de 12:00 a 18:00 en mm
DESCASC
Precipitaciones de 18:00 a 24:00 en mm
DESCASC
18-10-2018 18.2 (13:20) 14.3 (00:00) 16.3 11.67 (06:40) 7.5 (10:10) 1.4 1.4 0 0 0
17-10-2018 15.7 (16:10) 10.7 (09:20) 13.2 6.11 (17:50) 4.17 (17:40) 1.4 0 0 0 1.4
16-10-2018 18.2 (17:30) 9.8 (08:50) 14 6.94 (05:40) 5.28 (05:40) 0 0 0 0 0
15-10-2018 17.7 (15:00) 11 (00:10) 14.4 12.22 (18:50) 7.5 (18:50) 6.4 1.4 5 0 0
14-10-2018 16.6 (17:30) 11.1 (00:00) 13.9 18.61 (06:00) 13.61 (07:10) 21 13.6 7.2 0.2 0
13-10-2018 26.8 (14:10) 13.9 (00:00) 20.3 18.33 (20:00) 11.11 (20:00) 1.6 0 0 0 1.6
12-10-2018 28.5 (16:10) 12.9 (00:00) 20.7 15 (19:40) 6.94 (16:40) 0 0 0 0 0
11-10-2018 20.9 (16:10) 14.5 (23:59) 17.7 14.72 (14:20) 12.22 (14:20) 3.4 0 3.4 0 0
10-10-2018 21.5 (12:10) 12.7 (00:00) 17.1 7.5 (18:40) 5.56 (09:00) 0 0 0 0 0
09-10-2018 16.7 (13:10) 10.9 (07:50) 13.8 8.61 (19:30) 5.56 (19:30) 0 0 0 0 0
08-10-2018 16.9 (12:50) 8.1 (05:20) 12.5 11.11 (18:10) 6.67 (07:50) 0 0 0 0 0
07-10-2018 16.7 (13:00) 10.2 (23:59) 13.5 14.72 (02:10) 10.83 (02:10) 0.4 0.4 0 0 0
06-10-2018 18 (10:40) 11.2 (05:10) 14.6 19.72 (15:50) 13.33 (16:00) 6.4 0 0 4.8 1.6
05-10-2018 20.1 (17:10) 13.2 (08:20) 16.7 8.33 (19:00) 5.56 (19:00) 0 0 0 0 0
04-10-2018 21.5 (19:00) 12.3 (00:00) 16.9 6.11 (02:00) 4.17 (12:50) 0 0 0 0 0
03-10-2018 16.7 (12:30) 12.5 (00:00) 14.6 15 (17:50) 9.17 (20:10) 0 0 0 0 0
02-10-2018 16.9 (11:50) 11.6 (00:00) 14.3 15.83 (15:10) 9.44 (15:10) 0 0 0 0 0
01-10-2018 17.5 (15:10) 14.2 (00:00) 15.8 12.78 (19:40) 7.78 (19:10) 0 0 0 0 0
30-09-2018 19.1 (15:40) 14.9 (00:00) 17 6.67 (22:40) 4.17 (22:20) 0 0 0 0 0
29-09-2018 18.8 (11:00) 15.3 (00:00) 17 14.44 (18:10) 8.89 (16:10) 0 0 0 0 0
28-09-2018 20 (13:20) 16.8 (00:00) 18.4 11.39 (21:30) 7.22 (18:00) 0 0 0 0 0
27-09-2018 27.3 (12:20) 16.2 (00:00) 21.8 9.17 (14:00) 6.67 (07:40) 0.4 0 0 0 0.4
26-09-2018 18.7 (13:40) 10.4 (00:00) 14.6 8.89 (00:10) 5.28 (00:30) 0 0 0 0 0
25-09-2018 17.6 (12:00) 14.9 (00:00) 16.3 18.33 (15:10) 11.11 (15:00) 0 0 0 0 0
24-09-2018 18.2 (00:00) 15.1 (00:00) 16.7 17.5 (13:30) 11.67 (12:20) 6 5.2 0.8 0 0
23-09-2018 22.1 (14:10) 16.5 (07:00) 19.3 7.22 (17:20) 5.56 (16:50) 3.8 0 0 0 3.8
22-09-2018 23.5 (11:30) 15.2 (04:40) 19.3 5.28 (09:10) 4.17 (05:10) 0 0 0 0 0
21-09-2018 21.3 (08:50) 16.8 (22:40) 19 12.22 (08:00) 7.78 (09:10) 0 0 0 0 0
20-09-2018 21.6 (15:20) 14.1 (06:20) 17.9 9.17 (21:20) 6.39 (21:50) 0 0 0 0 0

Gráficas

Temp. máximas Temp. mínimas Temp. medias Precipitaciones Rachas de viento máximas Velocidades máximas media en intervalos de 10 minutos

Datos horarios

Fecha y hora oficial Temperatura (ºC) Velocidad del viento (km/h) Dirección del viento Racha (km/h) Dirección de racha Precipitación (mm) Presión (hPa) Tendencia (hPa) Humedad (%)
2018-10-19 23:00:00 16 11 Este 21 Este 0 1015.3 1.7 90
2018-10-19 22:00:00 15.9 13 Este 28 Nordeste 0 1014.7 1.6 90
2018-10-19 21:00:00 16.2 15 Este 26 Este 0 1014.4 1.5 90
2018-10-19 20:00:00 16.4 15 Este 29 Este 0 1013.6 0.9 89
2018-10-19 19:00:00 17.1 17 Este 32 Este 0 1013.1 0.4 87
2018-10-19 18:00:00 17.4 14 Nordeste 27 Nordeste 0 1012.9 0 86
2018-10-19 17:00:00 17.6 17 Nordeste 28 Nordeste 0 1012.7 -0.3 85
2018-10-19 16:00:00 17.7 17 Este 23 Este 0 1012.7 -0.7 85
2018-10-19 15:00:00 16.8 13 Este 21 Este 0 1012.9 -0.3 85
2018-10-19 14:00:00 16.7 9 Este 14 Este 0 1013 0.4 83
2018-10-19 13:00:00 17.3 6 Este 11 Este 0 1013.4 1 83
2018-10-19 12:00:00 16.3 4 Nordeste 13 Sudeste 0 1013.2 2.2 85
2018-10-19 11:00:00 15.5 13 Sudeste 25 Sudeste 0 1012.6 1.8 88
2018-10-19 10:00:00 14 7 Sur 17 Sudeste 0 1012.4 1.7 91
2018-10-19 09:00:00 13.1 13 Sudeste 19 Sudeste 0 1011 0 90
2018-10-19 08:00:00 14.2 10 Sudeste 23 Sudeste 0 1010.8 -0.6 89
2018-10-19 07:00:00 13.9 14 Sudeste 22 Sudeste 0 1010.7 -1 91
2018-10-19 06:00:00 13.8 14 Sudeste 15 Sudeste 0 1011 -0.5 90
2018-10-19 05:00:00 14.4 12 Sur 14 Sudeste 0 1011.4 -0.2 90
2018-10-19 04:00:00 15 8 Sur 13 Sudeste 0 1011.7 0.3 89
2018-10-19 03:00:00 15.1 9 Sudeste 13 Sudeste 0 1011.5 0 89
2018-10-19 02:00:00 15.3 9 Sudeste 13 Este 0 1011.6 0.4 90
2018-10-19 01:00:00 15 8 Sudeste 12 Sudeste 0 1011.4 0.6 90
2018-10-19 00:00:00 15.2 6 Sudeste 11 Este 0 1011.5 1 90
2018-10-18 23:00:00 15.3 7 Sudeste 10 Este 0 1011.2 1.5 90
2018-10-18 22:00:00 15 6 Sudeste 10 Este 0 1010.8 1.3 89
2018-10-18 21:00:00 16.1 7 Este 14 Este 0 1010.5 1.2 88
2018-10-18 20:00:00 16.4 8 Nordeste 20 Este 0 1009.7 0.4 87
2018-10-18 19:00:00 17.1 7 Nordeste 19 Este 0 1009.5 0.1 85
2018-10-18 18:00:00 17.7 13 Nordeste 20 Este 0 1009.3 -0.3 85
2018-10-18 17:00:00 17.9 11 Este 24 Nordeste 0 1009.3 -0.6 85
2018-10-18 16:00:00 17.6 14 Nordeste 31 Nordeste 0 1009.4 -0.8 87
2018-10-18 15:00:00 17.1 19 Nordeste 33 Nordeste 0 1009.6 -0.5 87
2018-10-18 14:00:00 17.2 13 Este 21 Este 0 1009.9 -0.2 87
2018-10-18 13:00:00 17.3 11 Este 21 Nordeste 0 1010.2 0.7 85
2018-10-18 12:00:00 17.3 14 Nordeste 26 Nordeste 0 1010.1 1.1 83
2018-10-18 11:00:00 16.4 18 Nordeste 39 Nordeste 0 1010.1 1.6 84
2018-10-18 10:00:00 16.2 27 Nordeste 41 Nordeste 0 1009.5 1.4 83
2018-10-18 09:00:00 15.9 18 Nordeste 34 Nordeste 0 1009 1.3 86
2018-10-18 08:00:00 15.7 16 Nordeste 37 Nordeste 0 1008.5 0.8 86
2018-10-18 07:00:00 15.6 14 Norte 42 Nordeste 0 1008.1 0.3 88
2018-10-18 06:00:00 15.4 17 Nordeste 34 Nordeste 0.4 1007.7 -0.1 90
2018-10-18 05:00:00 14.8 5 Nordeste 13 Este 0.6 1007.7 -0.2 90
2018-10-18 04:00:00 14.7 0 Calma 14 Sudeste 0.2 1007.8 -0.1 90
2018-10-18 03:00:00 14.4 10 Sudeste 15 Sudeste 0.2 1007.8 -0.1 90
2018-10-18 02:00:00 14.4 4 Este 9 Este 0 1007.9 -0.3 89
2018-10-18 01:00:00 14.4 6 Sudeste 12 Sudeste 0 1007.9 -0.2 89
2018-10-18 00:00:00 14.3 11 Sudeste 16 Sudeste 0 1007.9 -0.2 90
2018-10-17 23:00:00 14.3 8 Sudeste 13 Sur 0.2 1008.2 0.5 89
2018-10-17 22:00:00 14.4 9 Sur 14 Sudeste 1.2 1008.1 0.7 89
2018-10-17 21:00:00 14.8 5 Sudoeste 18 Oeste 0 1008.1 0.6 88
2018-10-17 20:00:00 14.7 14 Oeste 17 Oeste 0 1007.7 0.4 87
2018-10-17 19:00:00 14.7 14 Oeste 19 Oeste 0 1007.4 0.2 87
2018-10-17 18:00:00 14.4 11 Oeste 22 Oeste 0 1007.5 0.3 89
2018-10-17 17:00:00 14.8 12 Oeste 16 Oeste 0 1007.3 -0.7 88
2018-10-17 16:00:00 15.6 9 Oeste 17 Oeste 0 1007.2 -1.4 87
2018-10-17 15:00:00 15.2 4 Nordeste 11 Este 0 1007.2 -1.8 88
2018-10-17 14:00:00 14.6 4 Nordeste 14 Este 0 1008 -1.5 89
2018-10-17 13:00:00 14.3 7 Nordeste 17 Nordeste 0 1008.6 -1.1 88
2018-10-17 12:00:00 14.4 3 Norte 8 Noroeste 0 1009 -1 85
2018-10-17 11:00:00 14.2 3 Norte 9 Sudeste 0 1009.5 -0.6 85
2018-10-17 10:00:00 12.4 4 Este 15 Sur 0 1009.7 -0.5 90
2018-10-17 09:00:00 11 10 Sur 14 Sur 0 1010 -0.2 91
2018-10-17 08:00:00 11 11 Sudeste 16 Sur 0 1010.1 -0.3 91
2018-10-17 07:00:00 11.7 10 Sudeste 15 Sudeste 0 1010.2 -0.6 92
2018-10-17 06:00:00 12.2 9 Sur 13 Sudeste 0 1010.2 -0.9 91
2018-10-17 05:00:00 12.7 9 Sudeste 13 Sur 0 1010.4 -1 91
2018-10-17 04:00:00 12.7 10 Sur 14 Sudeste 0 1010.8 -0.8 90
2018-10-17 03:00:00 13.2 8 Sur 14 Sudeste 0 1011.1 -0.6 90
2018-10-17 02:00:00 13.3 8 Sur 13 Sudoeste 0 1011.4 -0.3 89
2018-10-17 01:00:00 14.2 12 Sudoeste 15 Sudoeste 0 1011.6 0.1 90
2018-10-17 00:00:00 13.7 6 Sudoeste 17 Sudeste 0 1011.7 0.2 90
2018-10-16 23:00:00 13.5 11 Sudeste 13 Sudeste 0 1011.7 0.5 90
2018-10-16 22:00:00 13.8 9 Sudeste 13 Sudeste 0 1011.5 0.6 89
2018-10-16 21:00:00 14.6 3 Sudeste 10 Este 0 1011.5 0.9 87
2018-10-16 20:00:00 15.1 2 Este 5 Oeste 0 1011.2 0.5 82
2018-10-16 19:00:00 17.1 4 Oeste 11 Oeste 0 1010.9 0.5 78
2018-10-16 18:00:00 18 5 Oeste 10 Oeste 0 1010.6 0.3 76
2018-10-16 17:00:00 17.7 8 Oeste 13 Oeste 0 1010.7 0.2 78
2018-10-16 16:00:00 17.1 8 Oeste 13 Oeste 0 1010.4 0 76
2018-10-16 15:00:00 17.1 5 Noroeste 11 Oeste 0 1010.3 0.5 76
2018-10-16 14:00:00 16.7 8 Noroeste 13 Oeste 0 1010.5 1 79
2018-10-16 13:00:00 16 10 Oeste 15 Oeste 0 1010.4 1.4 77
2018-10-16 12:00:00 17.2 3 Oeste 15 Sudeste 0 1009.8 1.6 72
2018-10-16 11:00:00 14.9 12 Sudeste 22 Sudeste 0 1009.5 1.8 72
2018-10-16 10:00:00 11.7 15 Sudeste 20 Sur 0 1009 2.2 82
2018-10-16 09:00:00 9.9 16 Sur 21 Sur 0 1008.2 1.8 86
2018-10-16 08:00:00 10.3 17 Sur 22 Sudeste 0 1007.7 1.4 85
2018-10-16 07:00:00 10.9 18 Sudeste 24 Sudeste 0 1006.8 0.5 83
2018-10-16 06:00:00 11.6 18 Sudeste 25 Sudeste 0 1006.4 0.5 81
2018-10-16 05:00:00 11.3 17 Sudeste 23 Sur 0 1006.3 0.9 85
2018-10-16 04:00:00 10.9 16 Sur 21 Sudeste 0 1006.3 1.2 87
2018-10-16 03:00:00 10.8 15 Sur 21 Sudeste 0 1005.9 1.4 86
2018-10-16 02:00:00 11 17 Sur 22 Sur 0 1005.4 1.4 86
2018-10-16 01:00:00 11.6 13 Sudeste 18 Sudeste 0 1005.1 1.6 84
2018-10-16 00:00:00 12.3 14 Sudeste 18 Sudeste 0 1004.5 1.5 82
2018-10-15 23:00:00 12.7 13 Sudeste 17 Sudeste 0 1004 2.2 82
2018-10-15 22:00:00 13.8 11 Sudeste 20 Este 0 1003.5 2.6 78
2018-10-15 21:00:00 15.3 10 Este 31 Este 0 1003 2.8 77
2018-10-15 20:00:00 15.7 23 Este 40 Nordeste 0 1001.8 2.4 80
2018-10-15 19:00:00 16.1 26 Nordeste 44 Nordeste 0 1000.9 2 77
2018-10-15 18:00:00 16.9 26 Nordeste 43 Nordeste 0 1000.2 1.5 71
2018-10-15 17:00:00 17.1 17 Nordeste 34 Este 0 999.4 0.1 66
2018-10-15 16:00:00 17.3 17 Nordeste 31 Nordeste 0 998.9 0.5 67
2018-10-15 15:00:00 17.6 13 Este 24 Nordeste 0 998.7 1 70
2018-10-15 14:00:00 15.3 12 Este 26 Este 0 999.3 2.3 77
2018-10-15 13:00:00 15.2 16 Este 30 Este 0 998.4 0.7 75
2018-10-15 12:00:00 14.5 14 Este 27 Sudeste 0 997.7 0.2 80
2018-10-15 11:00:00 12.7 16 Sudeste 23 Sudeste 0.2 997 -0.3 82
2018-10-15 10:00:00 11.5 13 Sudeste 26 Sudeste 0.6 997.7 0.6 84
2018-10-15 09:00:00 11.2 13 Sudeste 28 Nordeste 2.6 997.5 0.7 85
2018-10-15 08:00:00 11.8 16 Este 30 Sudeste 1.6 997.3 -0.9 85
2018-10-15 07:00:00 12.4 22 Sudeste 33 Sudeste 0 997.1 -2.8 75
2018-10-15 06:00:00 11.4 9 Sudeste 23 Sudeste 0.4 996.8 -3.5 79
2018-10-15 05:00:00 11.2 17 Sudeste 27 Sudeste 1 998.2 -2.8 80
2018-10-15 04:00:00 12.1 15 Sur 26 Sur 0 999.9 -1.7 73
2018-10-15 03:00:00 11.6 14 Sudeste 21 Sur 0 1000.3 -2.3 80
2018-10-15 02:00:00 11.2 13 Sudeste 20 Sudeste 0 1001 -2.1 82
2018-10-15 01:00:00 11.3 13 Sudeste 19 Sur 0 1001.6 -2.2 82
2018-10-15 00:00:00 11.1 15 Sudeste 25 Sudeste 0 1002.6 -1.2 84
2018-10-14 23:00:00 11.5 18 Sudeste 23 Sudeste 0 1003.1 -0.6 84
2018-10-14 22:00:00 12.7 10 Sudoeste 23 Oeste 0 1003.8 0.2 75
2018-10-14 21:00:00 13.9 13 Sudoeste 23 Oeste 0 1003.8 0.1 73
2018-10-14 20:00:00 14.3 23 Oeste 32 Oeste 0 1003.7 0.1 77
2018-10-14 19:00:00 15.1 20 Oeste 37 Oeste 0 1003.6 0.5 79
2018-10-14 18:00:00 15.9 25 Oeste 42 Oeste 0 1003.7 1.1 75
2018-10-14 17:00:00 15.6 27 Oeste 50 Noroeste 0 1003.6 1.1 77
2018-10-14 16:00:00 15.7 34 Oeste 56 Noroeste 0.2 1003.1 0.9 78
2018-10-14 15:00:00 15.5 36 Oeste 60 Noroeste 0 1002.6 0.5 84
2018-10-14 14:00:00 16 28 Oeste 62 Oeste 0 1002.5 0.6 82
2018-10-14 13:00:00 15.1 40 Oeste 52 Oeste 0 1002.2 0.7 74
2018-10-14 12:00:00 14.6 31 Oeste 39 Oeste 0 1002.1 1.4 72
2018-10-14 11:00:00 13 19 Sudoeste 31 Sudoeste 0.4 1001.9 2 76
2018-10-14 10:00:00 12.2 16 Sudoeste 26 Oeste 1 1001.5 2.9 80
2018-10-14 09:00:00 11.7 12 Sudoeste 44 Oeste 2.4 1000.7 3.1 84
2018-10-14 08:00:00 11.7 40 Oeste 64 Oeste 0.8 999.9 2.6 86
2018-10-14 07:00:00 11.6 48 Oeste 63 Oeste 2.6 998.6 0.8 88
2018-10-14 06:00:00 12.3 42 Oeste 67 Oeste 3.8 997.6 -0.8 90
2018-10-14 05:00:00 12.8 28 Oeste 46 Oeste 3.8 997.3 -1.7 91
2018-10-14 04:00:00 13.3 6 Oeste 13 Oeste 0.6 997.8 -2.6 90
2018-10-14 03:00:00 13.1 8 Sur 17 Oeste 2.4 998.4 -2.5 90
2018-10-14 02:00:00 13.2 14 Oeste 31 Oeste 1.8 999 -1.9 90
2018-10-14 01:00:00 13.2 23 Oeste 44 Oeste 1.2 1000.4 -0.3 91
2018-10-14 00:00:00 13.9 29 Oeste 49 Oeste 1.2 1000.9 -0.2 90
2018-10-13 23:00:00 15.2 16 Oeste 42 Oeste 0.4 1000.9 0.6 89
2018-10-13 22:00:00 16 -- -- -- -- 0 1000.7 1.1 86
2018-10-13 21:00:00 16.4 31 Oeste 57 Oeste 0 1001.1 1.2 85
2018-10-13 20:00:00 17.9 40 Oeste 66 Noroeste 0 1000.3 -0.1 78
2018-10-13 19:00:00 19.9 8 Sudoeste 19 Oeste 0 999.6 -0.9 70
2018-10-13 18:00:00 23.8 9 Sudeste 15 Sudeste 0 999.9 -1.5 59
2018-10-13 17:00:00 23.6 9 Sudoeste 18 Sudoeste 0 1000.4 -2.1 57
2018-10-13 16:00:00 24.6 5 Este 11 Sur 0 1000.5 -2.9 53
2018-10-13 15:00:00 24.5 6 Norte 14 Este 0 1001.4 -2.6 48
2018-10-13 14:00:00 26.4 9 Este 21 Este 0 1002.5 -1.9 43
2018-10-13 13:00:00 24.6 10 Este 21 Este 0 1003.4 -0.6 51
2018-10-13 12:00:00 24.2 10 Este 17 Sudoeste 0 1004 0.8 48
2018-10-13 11:00:00 22.4 8 Este 16 Este 0 1004.4 1.4 56
2018-10-13 10:00:00 22.2 6 Sudeste 14 Nordeste 0 1004 0.9 58
2018-10-13 09:00:00 21.8 9 Oeste 24 Sudeste 0 1003.2 -0.1 55
2018-10-13 08:00:00 25 16 Sudeste 28 Sudeste 0 1003 -0.8 42
2018-10-13 07:00:00 24 14 Sur 27 Sudeste 0 1003.1 -1.4 46
2018-10-13 06:00:00 23.1 17 Sudeste 27 Sudeste 0 1003.3 -1.7 50
2018-10-13 05:00:00 20.9 13 Sudeste 25 Sur 0 1003.8 -1.7 59
2018-10-13 04:00:00 21.1 16 Sur 33 Sur 0 1004.5 -1.8 59
2018-10-13 03:00:00 22.1 17 Sur 28 Sur 0 1005 -1.8 55
2018-10-13 02:00:00 21.1 17 Sudeste 23 Sudeste 0 1005.5 -1.7 60
2018-10-13 01:00:00 23 11 Sudeste 19 Sudeste 0 1006.3 -0.8 51
2018-10-13 00:00:00 23.5 11 Sudeste 24 Sur 0 1006.8 -0.5 49
2018-10-12 23:00:00 24.2 14 Sur 39 Sur 0 1007.2 0.2 47
2018-10-12 22:00:00 24.3 12 Sur 25 Sur 0 1007.1 0.6 47
2018-10-12 21:00:00 24.7 13 Sur 46 Sur 0 1007.3 0.8 46
2018-10-12 20:00:00 25.2 18 Sudoeste 54 Sur 0 1007 0.7 44
2018-10-12 19:00:00 25.5 18 Sudoeste 36 Sur 0 1006.5 0.7 44
2018-10-12 18:00:00 26.7 11 Sudoeste 44 Sur 0 1006.5 0.5 41
2018-10-12 17:00:00 26.9 24 Sur 40 Sur 0 1006.3 0.6 41
2018-10-12 16:00:00 28.4 5 Sudoeste 15 Sudeste 0 1005.8 -0.1 39
2018-10-12 15:00:00 27 4 Nordeste 19 Nordeste 0 1006 -0.2 42
2018-10-12 14:00:00 25.9 4 Nordeste 12 Norte 0 1005.7 -0.3 42
2018-10-12 13:00:00 24.6 5 Norte 22 Sur 0 1005.9 0.4 43
2018-10-12 12:00:00 24.7 12 Sudeste 33 Sur 0 1006.2 0.9 42
2018-10-12 11:00:00 22.7 13 Sudeste 25 Sudeste 0 1006 0.9 44
2018-10-12 10:00:00 19 12 Sudeste 23 Sudeste 0 1005.5 1.1 47
2018-10-12 09:00:00 14.4 16 Sudeste 24 Sudeste 0 1005.3 1.4 60
2018-10-12 08:00:00 13.3 16 Sudeste 22 Sudeste 0 1005.1 1.4 65
2018-10-12 07:00:00 14 16 Sudeste 22 Sur 0 1004.4 0.9 63
2018-10-12 06:00:00 14.8 16 Sudeste 25 Sudeste 0 1003.9 0.7 58
2018-10-12 05:00:00 14.8 15 Sudeste 21 Sudeste 0 1003.7 0.6 60
2018-10-12 04:00:00 15.6 14 Sudeste 26 Sur 0 1003.5 0.1 58
2018-10-12 03:00:00 16.3 12 Sur 26 Sur 0 1003.2 -0.4 56
2018-10-12 02:00:00 14.5 14 Sudeste 23 Sudeste 0 1003.1 -0.1 71
2018-10-12 01:00:00 13.5 13 Sudeste 23 Sudeste 0 1003.4 0.2 78
2018-10-12 00:00:00 14.5 13 Sudeste 22 Sur 0 1003.6 0.9 76
2018-10-11 23:00:00 14.6 17 Sudeste 23 Sudeste 0 1003.2 1.1 78
2018-10-11 22:00:00 15.1 11 Sudeste 18 Sudeste 0 1003.2 1.9 77
2018-10-11 21:00:00 16.6 10 Sudeste 19 Este 0 1002.7 1.3 71
2018-10-11 20:00:00 16.5 9 Este 26 Nordeste 0 1002.1 1.2 73
2018-10-11 19:00:00 17.3 12 Este 20 Este 0 1001.3 1 69
2018-10-11 18:00:00 19.3 7 Noroeste 28 Noroeste 0 1001.4 1.1 62
2018-10-11 17:00:00 19.4 16 Noroeste 43 Oeste 0 1000.9 1.2 63
2018-10-11 16:00:00 20.6 22 Oeste 40 Sudoeste 0 1000.3 0.5 56
2018-10-11 15:00:00 19.2 32 Oeste 53 Oeste 0 1000.3 0.8 56
2018-10-11 14:00:00 18.8 20 Oeste 32 Oeste 0 999.7 0.9 70
2018-10-11 13:00:00 18.4 15 Oeste 23 Oeste 0 999.8 3.1 72
2018-10-11 12:00:00 16.6 13 Oeste 29 Oeste 0 999.5 4.7 80
2018-10-11 11:00:00 15.1 21 Oeste 37 Oeste 2.6 998.8 4 87
2018-10-11 10:00:00 16.3 14 Sudoeste 27 Sudoeste 0 996.7 2.1 77
2018-10-11 09:00:00 15.6 10 Este 26 Este 0.2 994.8 0.9 82
2018-10-11 08:00:00 15.6 12 Sudeste 23 Sudeste 0.4 994.8 0.5 81
2018-10-11 07:00:00 15.8 17 Este 29 Este 0.2 994.6 1.2 77
2018-10-11 06:00:00 17 12 Este 33 Sudeste 0 993.9 0.2 65
2018-10-11 05:00:00 16.3 7 Sudoeste 21 Sudeste 0 994.3 0.7 65
2018-10-11 04:00:00 16.1 16 Sur 26 Sudeste 0 993.4 -0.1 64
2018-10-11 03:00:00 15.6 14 Sur 23 Sur 0 993.7 -0.2 67
2018-10-11 02:00:00 16.2 13 Sur 24 Sudeste 0 993.6 -0.5 63
2018-10-11 01:00:00 15.8 18 Sudeste 24 Sudeste 0 993.5 0 65
2018-10-11 00:00:00 15.6 15 Sudeste 21 Sudeste 0 993.9 0.3 67
2018-10-10 23:00:00 16.5 13 Sudoeste 18 Oeste 0 994.1 0.8 65
2018-10-10 22:00:00 16.2 12 Sur 18 Sudeste 0 993.5 0.3 68
2018-10-10 21:00:00 16.8 14 Sur 21 Este 0 993.6 0.3 68
2018-10-10 20:00:00 18.2 15 Este 23 Este 0 993.3 -0.1 59
2018-10-10 19:00:00 18.3 14 Este 27 Este 0 993.2 -0.3 58
2018-10-10 18:00:00 19.3 16 Este 26 Este 0 993.3 -0.8 51
2018-10-10 17:00:00 20 13 Este 22 Este 0 993.4 -1.3 49
2018-10-10 16:00:00 19.8 16 Este 24 Este 0 993.5 -1.6 46
2018-10-10 15:00:00 20.3 11 Este 15 Este 0 994.1 -1.1 49
2018-10-10 14:00:00 18.9 8 Este 12 Nordeste 0 994.7 -0.7 55
2018-10-10 13:00:00 19.2 7 Nordeste 13 Norte 0 995.1 -0.2 63
2018-10-10 12:00:00 21.1 5 Oeste 15 Sur 0 995.2 -0.3 46
2018-10-10 11:00:00 19.7 12 Sur 24 Sudeste 0 995.4 -0.2 47
2018-10-10 10:00:00 17.4 19 Sudeste 24 Sur 0 995.3 -0.6 52
2018-10-10 09:00:00 15.1 20 Sudeste 24 Sudeste 0 995.5 -0.9 57
2018-10-10 08:00:00 15 16 Sudeste 25 Sudeste 0 995.6 -1.3 58
2018-10-10 07:00:00 17.1 17 Sudeste 24 Sudeste 0 995.9 -1.5 48
2018-10-10 06:00:00 14.9 15 Sudeste 25 Sudeste 0 996.4 -2 57
2018-10-10 05:00:00 15.6 13 Sudeste 24 Sudeste 0 996.9 -2.2 57
2018-10-10 04:00:00 14.6 13 Sudeste 18 Sudeste 0 997.4 -2.1 63
2018-10-10 03:00:00 13.1 5 Sur 11 Sudoeste 0 998.4 -1.6 83
2018-10-10 02:00:00 13.7 4 Nordeste 10 Sudeste 0 999.1 -1.1 86
2018-10-10 01:00:00 13.8 6 Sudoeste 17 Sudoeste 0 999.5 -1 86
2018-10-10 00:00:00 13.2 11 Sur 16 Sur 0 1000 -0.8 87
2018-10-09 23:00:00 13.9 10 Sudeste 21 Este 0 1000.2 -0.5 84
2018-10-09 22:00:00 14.4 14 Este 20 Este 0 1000.5 -0.7 84
2018-10-09 21:00:00 14.6 13 Este 27 Este 0 1000.8 -0.8 84
2018-10-09 20:00:00 14.6 18 Este 31 Este 0 1000.7 -1.7 85
2018-10-09 19:00:00 15 20 Este 30 Este 0 1001.2 -1.9 82
2018-10-09 18:00:00 15.5 18 Este 30 Este 0 1001.6 -2.3 80
2018-10-09 17:00:00 15.6 15 Nordeste 30 Este 0 1002.4 -2.4 81
2018-10-09 16:00:00 16.1 14 Este 26 Este 0 1003.1 -2.3 80
2018-10-09 15:00:00 16 15 Este 20 Este 0 1003.9 -1.8 76
2018-10-09 14:00:00 15.7 6 Nordeste 14 Nordeste 0 1004.8 -1.2 79
2018-10-09 13:00:00 16.4 4 Oeste 18 Nordeste 0 1005.4 -0.5 80
2018-10-09 12:00:00 15.6 6 Nordeste 13 Este 0 1005.7 -0.1 78
2018-10-09 11:00:00 15.5 8 Este 17 Sudeste 0 1006 0 75
2018-10-09 10:00:00 12.8 13 Sudeste 21 Sudeste 0 1005.9 0.1 83
2018-10-09 09:00:00 11.1 16 Sudeste 22 Sudeste 0 1005.8 -0.4 87
2018-10-09 08:00:00 11.1 17 Sudeste 21 Sudeste 0 1006 -0.2 87
2018-10-09 07:00:00 11.7 15 Sudeste 21 Sudeste 0 1005.8 -1.1 86
2018-10-09 06:00:00 11.5 10 Sudeste 16 Sudeste 0 1006.2 -1.3 85
2018-10-09 05:00:00 12.5 12 Sudeste 18 Este 0 1006.2 -1.8 84
2018-10-09 04:00:00 12.9 12 Sudeste 21 Sudeste 0 1006.9 -1.7 84
2018-10-09 03:00:00 13.1 17 Sudeste 24 Sur 0 1007.5 -1.4 84
2018-10-09 02:00:00 13.6 15 Sudeste 22 Sur 0 1008 -1.2 82
2018-10-09 01:00:00 14.5 11 Este 17 Este 0 1008.6 -0.9 79
2018-10-09 00:00:00 14.1 12 Sudeste 24 Este 0 1008.9 -0.5 81
2018-10-08 23:00:00 14.6 10 Este 28 Este 0 1009.2 -0.5 79
2018-10-08 22:00:00 14.8 16 Este 27 Este 0 1009.5 -0.4 81
2018-10-08 21:00:00 14.7 15 Este 31 Este 0 1009.4 -0.7 85
2018-10-08 20:00:00 14.6 17 Nordeste 32 Nordeste 0 1009.7 -1.2 87
2018-10-08 19:00:00 15.1 17 Nordeste 40 Nordeste 0 1009.9 -1.3 85
2018-10-08 18:00:00 15.6 20 Nordeste 39 Nordeste 0 1010.1 -1.7 82
2018-10-08 17:00:00 16 12 Nordeste 28 Nordeste 0 1010.9 -1.7 80
2018-10-08 16:00:00 16 18 Nordeste 32 Nordeste 0 1011.2 -1.5 79
2018-10-08 15:00:00 16.2 15 Nordeste 31 Nordeste 0 1011.8 -1.4 75
2018-10-08 14:00:00 16 19 Nordeste 32 Nordeste 0 1012.6 -0.8 73
2018-10-08 13:00:00 16.6 13 Nordeste 28 Nordeste 0 1012.7 -0.8 72
2018-10-08 12:00:00 15.8 12 Este 17 Este 0 1013.2 -0.1 70
2018-10-08 11:00:00 13.2 12 Sudeste 27 Sudeste 0 1013.4 0.1 70
2018-10-08 10:00:00 10.2 20 Sudeste 27 Sudeste 0 1013.5 -0.1 75
2018-10-08 09:00:00 9.2 23 Sudeste 30 Sudeste 0 1013.3 -0.6 76
2018-10-08 08:00:00 8.3 24 Sudeste 31 Sudeste 0 1013.3 -0.9 78
2018-10-08 07:00:00 8.1 22 Sudeste 28 Sudeste 0 1013.6 -1.1 79
2018-10-08 06:00:00 8.2 20 Sudeste 27 Sudeste 0 1013.9 -1.3 80
2018-10-08 05:00:00 8.3 17 Sudeste 24 Sudeste 0 1014.2 -1.4 79
2018-10-08 04:00:00 8.7 18 Sudeste 24 Sudeste 0 1014.7 -1.7 79
2018-10-08 03:00:00 9 18 Sudeste 26 Sudeste 0 1015.2 -1.7 78
2018-10-08 02:00:00 9.6 21 Sudeste 28 Sudeste 0 1015.6 -1.4 76
2018-10-08 01:00:00 9.7 22 Sudeste 30 Sudeste 0 1016.4 -0.6 76
2018-10-08 00:00:00 10.3 19 Sudeste 26 Sudeste 0 1016.9 -0.2 73
2018-10-07 23:00:00 11.2 15 Sudeste 22 Sudeste 0 1017 -0.1 69
2018-10-07 22:00:00 11.9 13 Sudeste 19 Sudeste 0 1017 0.1 65
2018-10-07 21:00:00 13.4 12 Este 18 Este 0 1017.1 0.1 60
2018-10-07 20:00:00 13.9 9 Este 20 Este 0 1017.1 -0.2 66
2018-10-07 19:00:00 15 13 Este 21 Nordeste 0 1016.9 -0.3 69
2018-10-07 18:00:00 15.8 8 Nordeste 23 Nordeste 0 1017 -0.1 66
2018-10-07 17:00:00 16.2 10 Nordeste 22 Nordeste 0 1017.3 -0.1 63
2018-10-07 16:00:00 15.6 9 Nordeste 25 Nordeste 0 1017.2 -0.2 68
2018-10-07 15:00:00 15.3 11 Nordeste 26 Nordeste 0 1017.1 -0.4 68
2018-10-07 14:00:00 15.6 3 Nordeste 14 Este 0 1017.4 0.1 67
2018-10-07 13:00:00 16.5 4 Oeste 13 Sudeste 0 1017.4 0.3 71
2018-10-07 12:00:00 14.1 8 Sudeste 18 Sudeste 0 1017.5 1 77
2018-10-07 11:00:00 12.5 13 Sudeste 21 Sur 0 1017.3 1.1 81
2018-10-07 10:00:00 11.4 15 Sudeste 22 Nordeste 0 1017.1 1.2 83
2018-10-07 09:00:00 10.6 19 Sudeste 25 Sudeste 0 1016.5 0.9 84
2018-10-07 08:00:00 11.1 16 Sudeste 25 Sudeste 0 1016.2 0.3 83
2018-10-07 07:00:00 10.7 14 Sur 22 Sudeste 0 1015.9 -0.2 84
2018-10-07 06:00:00 10.4 18 Sur 22 Sur 0 1015.6 -0.6 85
2018-10-07 05:00:00 10.8 14 Sur 20 Sur 0.2 1015.9 0 84
2018-10-07 04:00:00 11.1 17 Sur 22 Sur 0 1016.1 0 84
2018-10-07 03:00:00 12.4 9 Noroeste 53 Noroeste 0.2 1016.2 0.4 74
2018-10-07 02:00:00 13.8 35 Noroeste 53 Noroeste 0 1015.9 0.3 74
2018-10-07 01:00:00 13.7 17 Oeste 39 Noroeste 0 1016.1 1 71
2018-10-07 00:00:00 14 27 Noroeste 52 Noroeste 0.2 1015.8 1.6 67
2018-10-06 23:00:00 13.2 14 Oeste 30 Sudoeste 0 1015.6 2.3 78
2018-10-06 22:00:00 13.6 14 Oeste 55 Noroeste 0 1015.1 2.2 72
2018-10-06 21:00:00 13.5 17 Oeste 47 Oeste 0 1014.2 1.8 78
2018-10-06 20:00:00 13.6 30 Oeste 41 Oeste 0 1013.3 1.2 82
2018-10-06 19:00:00 13.9 25 Oeste 57 Oeste 1.4 1012.9 2.2 81
2018-10-06 18:00:00 14 24 Oeste 46 Oeste 2.2 1012.4 1.9 83
2018-10-06 17:00:00 14.9 28 Oeste 66 Oeste 0 1012.1 1.7 79
2018-10-06 16:00:00 15.4 48 Oeste 71 Oeste 0 1010.7 1 75
2018-10-06 15:00:00 14.5 44 Oeste 59 Oeste 0 1010.5 1.4 77
2018-10-06 14:00:00 12.5 39 Oeste 67 Oeste 1.8 1010.4 2.8 88
2018-10-06 13:00:00 13.6 37 Oeste 60 Oeste 0.8 1009.7 3 89
2018-10-06 12:00:00 15.2 28 Oeste 64 Oeste 0 1009.1 2.4 81
2018-10-06 11:00:00 17.8 41 Oeste 56 Oeste 0 1007.6 1.2 61
2018-10-06 10:00:00 17.6 47 Oeste 58 Oeste 0 1006.7 1 60
2018-10-06 09:00:00 16.8 28 Oeste 69 Oeste 0 1006.7 -0.2 62
2018-10-06 08:00:00 16.3 27 Sudoeste 52 Sudoeste 0 1006.4 -0.4 64
2018-10-06 07:00:00 15.6 43 Oeste 53 Sudoeste 0 1005.7 -1.5 69
2018-10-06 06:00:00 12.9 13 Sudoeste 17 Sudoeste 0 1006.9 -0.6 87
2018-10-06 05:00:00 11.4 10 Sur 17 Sur 0 1006.8 -0.8 88
2018-10-06 04:00:00 11.8 14 Sur 19 Sur 0 1007.2 -0.6 89
2018-10-06 03:00:00 11.8 13 Sur 16 Sur 0 1007.5 -0.6 89
2018-10-06 02:00:00 12 11 Sur 17 Sur 0 1007.6 -0.9 88
2018-10-06 01:00:00 12.5 12 Sur 15 Sur 0 1007.8 -0.3 88
2018-10-06 00:00:00 13.8 8 Sudoeste 14 Oeste 0 1008.1 -0.1 86
2018-10-05 23:00:00 14.1 11 Oeste 14 Oeste 0 1008.5 0.6 87
2018-10-05 22:00:00 13.5 6 Sudeste 15 Oeste 0 1008.1 0.2 86
2018-10-05 21:00:00 14.2 14 Oeste 24 Oeste 0 1008.2 0.7 86
2018-10-05 20:00:00 14.7 14 Oeste 28 Oeste 0 1007.9 0.4 84
2018-10-05 19:00:00 16.1 20 Oeste 30 Oeste 0 1007.9 0.3 80
2018-10-05 18:00:00 18.9 10 Oeste 18 Oeste 0 1007.5 0.1 71
2018-10-05 17:00:00 20 10 Oeste 15 Oeste 0 1007.5 -0.3 68
2018-10-05 16:00:00 19.8 9 Oeste 13 Oeste 0 1007.6 -0.6 67
2018-10-05 15:00:00 18.6 4 Noroeste 9 Norte 0 1007.4 -1 70
2018-10-05 14:00:00 19.6 3 Noroeste 8 Noroeste 0 1007.8 -0.5 61
2018-10-05 13:00:00 18.6 5 Noroeste 8 Noroeste 0 1008.2 0.1 64
2018-10-05 12:00:00 18.7 5 Oeste 11 Noroeste 0 1008.4 0.7 63
2018-10-05 11:00:00 16.6 9 Sudoeste 15 Sudeste 0 1008.3 0.8 66
2018-10-05 10:00:00 16.3 13 Sudeste 18 Sudeste 0 1008.1 0.7 66
2018-10-05 09:00:00 13.7 13 Sudeste 21 Sudeste 0 1007.7 0.2 73
2018-10-05 08:00:00 13.3 13 Sudeste 18 Sudeste 0 1007.5 -0.2 75
2018-10-05 07:00:00 13.4 13 Sur 24 Sur 0 1007.4 -0.8 76
2018-10-05 06:00:00 13.6 12 Sur 18 Sur 0 1007.5 -1.3 76
2018-10-05 05:00:00 13.4 14 Sudeste 21 Sur 0 1007.7 -1.2 78
2018-10-05 04:00:00 14.1 10 Sur 20 Sur 0 1008.2 -0.8 77
2018-10-05 03:00:00 14.6 12 Sur 20 Sudeste 0 1008.8 -0.6 76
2018-10-05 02:00:00 14.8 12 Sur 19 Sur 0 1008.9 -0.6 77
2018-10-05 01:00:00 15.4 10 Sudeste 15 Sudeste 0 1009 -0.6 75
2018-10-05 00:00:00 14.7 10 Sur 13 Sur 0 1009.4 0 80
2018-10-04 23:00:00 15.4 8 Sudeste 12 Sudeste 0 1009.5 0.1 78
2018-10-04 22:00:00 17 9 Sudoeste 12 Sudoeste 0 1009.6 0.3 69
2018-10-04 21:00:00 17.5 6 Sudoeste 9 Sudoeste 0 1009.4 -0.1 68
2018-10-04 20:00:00 19 3 Sudoeste 8 Oeste 0 1009.4 -0.5 66
2018-10-04 19:00:00 21.5 3 Sudoeste 6 Este 0 1009.3 -0.8 61
2018-10-04 18:00:00 20.5 5 Este 14 Este 0 1009.5 -1.2 63
2018-10-04 17:00:00 18.9 12 Este 17 Este 0 1009.9 -1.4 66
2018-10-04 16:00:00 18.1 14 Este 18 Este 0 1010.1 -1.5 71
2018-10-04 15:00:00 19.1 13 Este 17 Este 0 1010.7 -1.4 66
2018-10-04 14:00:00 18.1 11 Este 15 Este 0 1011.3 -0.9 70
2018-10-04 13:00:00 16.7 14 Este 18 Este 0 1011.6 -0.6 73
2018-10-04 12:00:00 16.9 10 Este 12 Este 0 1012.1 0.1 72
2018-10-04 11:00:00 16.3 3 Nordeste 12 Sudeste 0 1012.2 0.2 74
2018-10-04 10:00:00 15.1 4 Sudoeste 13 Sudeste 0 1012.2 0.2 79
2018-10-04 09:00:00 13.1 8 Sur 15 Sur 0 1012 -0.2 82
2018-10-04 08:00:00 13.1 8 Sur 21 Sudeste 0 1012 -0.7 81
2018-10-04 07:00:00 13.5 12 Sudeste 19 Sudeste 0 1012 -1.5 82
2018-10-04 06:00:00 12.5 12 Sudeste 15 Este 0 1012.2 -1.8 87
2018-10-04 05:00:00 12.7 13 Sudeste 18 Sudeste 0 1012.7 -1.8 87
2018-10-04 04:00:00 13.5 6 Sudeste 18 Este 0 1013.5 -1.5 84
2018-10-04 03:00:00 14.1 11 Este 21 Este 0 1014 -1.2 84
2018-10-04 02:00:00 14.1 11 Este 22 Este 0 1014.5 -0.9 86
2018-10-04 01:00:00 12.8 7 Sudeste 10 Este 0 1015 -0.3 87
2018-10-04 00:00:00 13.2 8 Sudeste 13 Este 0 1015.2 0 85
2018-10-03 23:00:00 14.3 8 Este 24 Este 0 1015.4 0.6 81
2018-10-03 22:00:00 15.2 17 Este 41 Este 0 1015.3 0.5 79
2018-10-03 21:00:00 15.4 23 Este 45 Este 0 1015.2 0.4 79
2018-10-03 20:00:00 15.2 32 Este 46 Este 0 1014.8 -0.5 79
2018-10-03 19:00:00 15.6 26 Este 44 Nordeste 0 1014.8 -0.9 77
2018-10-03 18:00:00 15.9 30 Nordeste 54 Nordeste 0 1014.8 -1.5 75
2018-10-03 17:00:00 16 30 Nordeste 52 Nordeste 0 1015.3 -1.8 76
2018-10-03 16:00:00 16 27 Nordeste 47 Nordeste 0 1015.7 -1.9 75
2018-10-03 15:00:00 16.2 27 Nordeste 51 Nordeste 0 1016.3 -1.6 75
2018-10-03 14:00:00 16.4 27 Nordeste 52 Nordeste 0 1017.1 -0.9 68
2018-10-03 13:00:00 16.4 21 Nordeste 37 Este 0 1017.6 -0.4 64
2018-10-03 12:00:00 16.4 21 Este 33 Este 0 1017.9 0.2 59
2018-10-03 11:00:00 16.2 16 Este 27 Este 0 1018 0.3 57
2018-10-03 10:00:00 15.2 11 Este 21 Nordeste 0 1018 0.3 60
2018-10-03 09:00:00 12.5 12 Este 30 Este 0 1017.7 0.1 72
2018-10-03 08:00:00 13.6 18 Este 32 Este 0 1017.7 -0.1 72
2018-10-03 07:00:00 13.3 13 Este 24 Este 0 1017.7 -0.7 72
2018-10-03 06:00:00 13.6 14 Este 19 Este 0 1017.6 -1.2 71
2018-10-03 05:00:00 13.6 10 Este 19 Sudeste 0 1017.8 -1.2 72
2018-10-03 04:00:00 13.7 12 Este 17 Este 0 1018.4 -0.9 72
2018-10-03 03:00:00 13.9 13 Sudeste 24 Este 0 1018.8 -0.7 71
2018-10-03 02:00:00 14.5 13 Este 37 Este 0 1019 -0.4 67
2018-10-03 01:00:00 14.2 17 Este 30 Este 0 1019.3 0.2 72
2018-10-03 00:00:00 14.1 13 Este 27 Este 0 1019.5 0.7 73
2018-10-02 23:00:00 14.3 12 Este 22 Este 0 1019.4 1 73
2018-10-02 22:00:00 14.9 17 Este 30 Este 0 1019.1 0.6 71
2018-10-02 21:00:00 15.2 22 Este 40 Nordeste 0 1018.8 0.1 71
2018-10-02 20:00:00 15.7 26 Nordeste 49 Nordeste 0 1018.4 -0.3 71
2018-10-02 19:00:00 15.9 27 Nordeste 52 Nordeste 0 1018.5 -0.4 72
2018-10-02 18:00:00 16.1 33 Nordeste 53 Nordeste 0 1018.7 -0.5 70
2018-10-02 17:00:00 16.3 33 Nordeste 54 Nordeste 0 1018.7 -1 69
2018-10-02 16:00:00 16.4 33 Nordeste 57 Nordeste 0 1018.9 -1.1 66
2018-10-02 15:00:00 16.3 33 Nordeste 53 Nordeste 0 1019.2 -1.1 64
2018-10-02 14:00:00 16.5 26 Nordeste 48 Nordeste 0 1019.7 -0.7 64
2018-10-02 13:00:00 16.7 28 Nordeste 44 Nordeste 0 1020 -0.4 62
2018-10-02 12:00:00 16.7 21 Este 39 Nordeste 0 1020.3 0.5 60
2018-10-02 11:00:00 15.8 15 Este 31 Nordeste 0 1020.4 1 64
2018-10-02 10:00:00 14.7 13 Nordeste 25 Nordeste 0 1020.4 1 76
2018-10-02 09:00:00 12.4 7 Este 19 Sudeste 0 1019.8 0.1 73
2018-10-02 08:00:00 11.7 13 Sudeste 19 Sudeste 0 1019.4 -0.6 77
2018-10-02 07:00:00 12.4 11 Este 18 Este 0 1019.4 -0.8 76
2018-10-02 06:00:00 11.8 9 Sudeste 22 Nordeste 0 1019.7 -0.7 80
2018-10-02 05:00:00 13.5 11 Este 23 Este 0 1020 -0.6 80
2018-10-02 04:00:00 13.5 8 Este 15 Este 0 1020.2 -0.7 77
2018-10-02 03:00:00 13.6 8 Este 14 Este 0 1020.4 -0.4 75
2018-10-02 02:00:00 14 10 Este 20 Este 0 1020.6 0 74
2018-10-02 01:00:00 14.1 12 Este 21 Nordeste 0 1020.9 0.5 75
2018-10-02 00:00:00 14.3 13 Este 25 Nordeste 0 1020.8 0.5 72
2018-10-01 23:00:00 14.6 15 Nordeste 27 Nordeste 0 1020.6 0.5 75
2018-10-01 22:00:00 14.8 18 Este 36 Este 0 1020.4 0.7 74
2018-10-01 21:00:00 15 18 Nordeste 39 Nordeste 0 1020.3 0.6 77
2018-10-01 20:00:00 15.2 23 Nordeste 46 Nordeste 0 1020.1 0.2 79
2018-10-01 19:00:00 15.9 26 Nordeste 44 Nordeste 0 1019.7 -0.5 77
2018-10-01 18:00:00 16.5 26 Nordeste 42 Nordeste 0 1019.7 -0.7 74
2018-10-01 17:00:00 16.8 24 Nordeste 41 Nordeste 0 1019.9 -0.6 73
2018-10-01 16:00:00 17.1 24 Nordeste 42 Nordeste 0 1020.2 -0.4 74
2018-10-01 15:00:00 17.1 26 Nordeste 40 Nordeste 0 1020.4 -0.5 74
2018-10-01 14:00:00 16.5 17 Nordeste 31 Nordeste 0 1020.5 -0.1 73
2018-10-01 13:00:00 17.1 21 Este 34 Este 0 1020.6 0.3 69
2018-10-01 12:00:00 16.4 21 Este 31 Este 0 1020.9 1.1 71
2018-10-01 11:00:00 16 15 Este 24 Este 0 1020.6 1.5 74
2018-10-01 10:00:00 16 12 Este 28 Este 0 1020.3 1.6 74
2018-10-01 09:00:00 15.6 17 Este 36 Nordeste 0 1019.8 1.4 75
2018-10-01 08:00:00 15.3 14 Nordeste 27 Nordeste 0 1019.1 0.9 79
2018-10-01 07:00:00 15.5 8 Este 18 Este 0 1018.7 0.1 74
2018-10-01 06:00:00 15.5 13 Este 20 Este 0 1018.4 -0.1 74
2018-10-01 05:00:00 15.6 13 Este 19 Este 0 1018.2 0 72
2018-10-01 04:00:00 15.9 9 Este 23 Este 0 1018.6 0.9 74
2018-10-01 03:00:00 16 12 Este 27 Nordeste 0 1018.5 0.7 76
2018-10-01 02:00:00 16.1 12 Este 25 Nordeste 0 1018.2 0.6 77
2018-10-01 01:00:00 16.2 15 Nordeste 26 Nordeste 0 1017.7 0.6 78
2018-10-01 00:00:00 16.5 8 Este 19 Este 0 1017.8 1.6 74
2018-09-30 23:00:00 16.5 10 Este 24 Este 0 1017.6 1.8 76
2018-09-30 22:00:00 16.6 13 Nordeste 23 Este 0 1017.1 1.8 77
2018-09-30 21:00:00 16.6 7 Este 12 Este 0 1016.2 1.5 79
2018-09-30 20:00:00 16.9 3 Sudeste 6 Nordeste 0 1015.8 1.3 81
2018-09-30 19:00:00 17.5 3 Nordeste 12 Nordeste 0 1015.3 1 77
2018-09-30 18:00:00 17.6 5 Nordeste 9 Nordeste 0 1014.7 0.1 80
2018-09-30 17:00:00 18.1 3 Nordeste 7 Nordeste 0 1014.5 -0.3 76
2018-09-30 16:00:00 18.9 4 Nordeste 15 Este 0 1014.3 -0.2 69
2018-09-30 15:00:00 18.9 9 Este 14 Este 0 1014.6 0.1 70
2018-09-30 14:00:00 17.9 8 Este 14 Nordeste 0 1014.8 0.9 76
2018-09-30 13:00:00 17.7 9 Nordeste 17 Este 0 1014.5 1 77
2018-09-30 12:00:00 16.7 10 Este 17 Este 0 1014.5 2.1 82
2018-09-30 11:00:00 16.3 12 Este 19 Este 0 1013.9 2 87
2018-09-30 10:00:00 16 5 Nordeste 8 Este 0 1013.5 2 90
2018-09-30 09:00:00 16 3 Nordeste 9 Este 0 1012.4 0.8 91
2018-09-30 08:00:00 15.8 4 Nordeste 10 Sur 0 1011.9 0.5 90
2018-09-30 07:00:00 16.2 8 Sudeste 12 Sudeste 0 1011.5 0.1 91
2018-09-30 06:00:00 15.7 2 Noroeste 5 Sudoeste 0 1011.6 0.3 91
2018-09-30 05:00:00 15.9 0 Calma 5 Este 0 1011.4 0.2 91
2018-09-30 04:00:00 15.7 4 Este 13 Este 0 1011.4 0.1 91
2018-09-30 03:00:00 16.1 6 Sudeste 13 Este 0 1011.3 0.3 92
2018-09-30 02:00:00 15.3 6 Este 17 Nordeste 0 1011.2 0.4 92
2018-09-30 01:00:00 15.4 5 Este 14 Este 0 1011.3 0.8 92
2018-09-30 00:00:00 15.3 13 Este 33 Este 0 1011 0.9 91
2018-09-29 23:00:00 15.6 19 Este 32 Este 0 1010.8 1 91
2018-09-29 22:00:00 15.5 17 Este 39 Nordeste 0 1010.5 0.8 91
2018-09-29 21:00:00 15.9 24 Este 38 Este 0 1010.1 0.6 91
2018-09-29 20:00:00 16.1 22 Nordeste 41 Nordeste 0 1009.8 0.1 89
2018-09-29 19:00:00 16.9 22 Nordeste 52 Nordeste 0 1009.7 0 88
2018-09-29 18:00:00 17.4 30 Nordeste 51 Nordeste 0 1009.5 -0.7 86
2018-09-29 17:00:00 17.6 25 Nordeste 51 Nordeste 0 1009.7 -1.1 85
2018-09-29 16:00:00 18.3 30 Nordeste 50 Nordeste 0 1009.7 -1.6 83
2018-09-29 15:00:00 17.9 22 Nordeste 41 Este 0 1010.2 -1.3 83
2018-09-29 14:00:00 18 23 Nordeste 40 Este 0 1010.8 -0.8 83
2018-09-29 13:00:00 18.4 20 Este 37 Este 0 1011.3 -0.4 81
2018-09-29 12:00:00 18.1 21 Este 33 Nordeste 0 1011.5 0.1 82
2018-09-29 11:00:00 18.8 13 Este 24 Este 0 1011.6 0.3 82
2018-09-29 10:00:00 17.9 16 Este 27 Este 0 1011.7 0.4 86
2018-09-29 09:00:00 17.2 13 Este 29 Este 0 1011.4 0.1 89
2018-09-29 08:00:00 16.7 17 Este 34 Este 0 1011.3 -0.4 89
2018-09-29 07:00:00 16.7 16 Este 30 Nordeste 0 1011.3 -1.1 88
2018-09-29 06:00:00 17.4 16 Este 28 Este 0 1011.3 -1.4 88
2018-09-29 05:00:00 17.4 17 Este 34 Sudeste 0 1011.7 -1.4 90
2018-09-29 04:00:00 17.1 19 Este 35 Este 0 1012.4 -0.9 88
2018-09-29 03:00:00 18.1 15 Este 34 Este 0 1012.7 -0.6 90
2018-09-29 02:00:00 17.5 19 Este 35 Este 0 1013.1 -0.3 90
2018-09-29 01:00:00 17.3 19 Este 34 Este 0 1013.3 -0.1 91
2018-09-29 00:00:00 17.8 20 Este 38 Este 0 1013.3 0.3 91
2018-09-28 23:00:00 17.3 23 Este 37 Este 0 1013.4 0.8 91
2018-09-28 22:00:00 17.5 16 Este 41 Este 0 1013.4 0.6 90
2018-09-28 21:00:00 17 13 Este 32 Este 0 1013 0 91
2018-09-28 20:00:00 17.1 13 Este 37 Nordeste 0 1012.6 -0.6 90
2018-09-28 19:00:00 17.6 20 Nordeste 39 Nordeste 0 1012.8 -0.9 89
2018-09-28 18:00:00 17.7 26 Nordeste 38 Nordeste 0 1013 -1.3 89
2018-09-28 17:00:00 18.1 23 Nordeste 33 Nordeste 0 1013.2 -1.6 88
2018-09-28 16:00:00 18.1 13 Nordeste 27 Nordeste 0 1013.7 -1.5 87
2018-09-28 15:00:00 18.9 7 Este 20 Este 0 1014.3 -1.1 84
2018-09-28 14:00:00 19.7 9 Este 15 Este 0 1014.8 -0.7 81
2018-09-28 13:00:00 19.8 8 Este 12 Este 0 1015.2 -0.3 82
2018-09-28 12:00:00 18.2 8 Este 13 Este 0 1015.4 0.2 88
2018-09-28 11:00:00 17.9 7 Sudeste 11 Sudeste 0 1015.5 0.6 89
2018-09-28 10:00:00 17.7 4 Sudeste 11 Sur 0 1015.5 0.5 90
2018-09-28 09:00:00 17.5 6 Sur 11 Este 0 1015.2 0.2 91
2018-09-28 08:00:00 17.6 8 Este 12 Sudeste 0 1014.9 -0.1 92
2018-09-28 07:00:00 17.2 7 Este 11 Este 0 1015 -0.7 92
2018-09-28 06:00:00 17.7 6 Este 9 Este 0 1015 -1.3 91
2018-09-28 05:00:00 17.9 5 Este 7 Este 0 1015 -1.6 91
2018-09-28 04:00:00 18 2 Este 5 Este 0 1015.7 -1.2 91
2018-09-28 03:00:00 17.8 3 Nordeste 6 Este 0 1016.3 -0.8 91
2018-09-28 02:00:00 17.3 3 Nordeste 8 Este 0 1016.6 -1 90
2018-09-28 01:00:00 18.2 6 Este 13 Este 0 1016.9 -0.9 91
2018-09-28 00:00:00 18.2 5 Este 18 Este 0 1017.1 -0.4 90
2018-09-27 23:00:00 18.4 3 Oeste 9 Sudeste 0 1017.6 -0.4 90
2018-09-27 22:00:00 18.4 2 Sudeste 8 Oeste 0 1017.8 0.3 90
2018-09-27 21:00:00 18.3 4 Sur 10 Sur 0.4 1017.5 0.2 90
2018-09-27 20:00:00 17.8 9 Oeste 18 Oeste 0 1018 0.4 89
2018-09-27 19:00:00 18 9 Oeste 16 Oeste 0 1017.5 0.1 86
2018-09-27 18:00:00 18.9 12 Oeste 17 Sudoeste 0 1017.3 -0.4 84
2018-09-27 17:00:00 20.3 14 Oeste 28 Oeste 0 1017.6 -0.3 78
2018-09-27 16:00:00 19.8 17 Oeste 24 Oeste 0 1017.4 0.1 74
2018-09-27 15:00:00 22.4 15 Oeste 20 Oeste 0 1017.7 0.1 63
2018-09-27 14:00:00 19.2 9 Noroeste 33 Oeste 0 1017.9 -0.1 71
2018-09-27 13:00:00 19.5 18 Este 22 Este 0 1017.3 -0.7 70
2018-09-27 12:00:00 25.6 11 Sudeste 21 Sudeste 0 1017.6 1 54
2018-09-27 11:00:00 22.7 14 Sudeste 20 Sudeste 0 1018 2 60
2018-09-27 10:00:00 20.1 13 Sudoeste 28 Sudeste 0 1018 2.1 64
2018-09-27 09:00:00 18.8 22 Sur 30 Sudeste 0 1016.6 0.5 67
2018-09-27 08:00:00 18.4 22 Sudeste 30 Sudeste 0 1016 -0.4 69
2018-09-27 07:00:00 18.3 23 Sudeste 29 Sudeste 0 1015.9 -0.8 70
2018-09-27 06:00:00 18.1 21 Sudeste 26 Sudeste 0 1016.1 -0.9 71
2018-09-27 05:00:00 17.6 19 Sudeste 24 Sudeste 0 1016.4 -0.6 74
2018-09-27 04:00:00 17.1 17 Sudeste 21 Sudeste 0 1016.7 -0.2 78
2018-09-27 03:00:00 16.3 8 Sudeste 12 Sudeste 0 1017 -0.1 81
2018-09-27 02:00:00 16.9 10 Sudeste 18 Sudeste 0 1017 0 81
2018-09-27 01:00:00 16.4 10 Sudeste 12 Sudeste 0 1016.9 0.1 86
2018-09-27 00:00:00 16.5 8 Sur 10 Sur 0 1017.1 0.8 87
2018-09-26 23:00:00 16.6 4 Sudoeste 10 Este 0 1017 0.8 87
2018-09-26 22:00:00 16.1 7 Sudeste 10 Este 0 1016.8 1 86
2018-09-26 21:00:00 16.1 3 Este 15 Este 0 1016.3 0.7 83
2018-09-26 20:00:00 16.9 11 Este 13 Este 0 1016.2 0.5 82
2018-09-26 19:00:00 17.9 9 Este 17 Nordeste 0 1015.8 0 78
2018-09-26 18:00:00 17.8 13 Este 18 Este 0 1015.6 -0.5 77
2018-09-26 17:00:00 18 13 Este 19 Este 0 1015.7 -0.7 75
2018-09-26 16:00:00 17.8 11 Este 17 Este 0 1015.8 -0.9 76
2018-09-26 15:00:00 17.9 8 Este 12 Este 0 1016.1 -0.9 73
2018-09-26 14:00:00 18.4 3 Oeste 6 Oeste 0 1016.4 -0.6 72
2018-09-26 13:00:00 17.7 5 Oeste 9 Oeste 0 1016.7 -0.1 72
2018-09-26 12:00:00 16.8 4 Oeste 8 Nordeste 0 1017 0.3 73
2018-09-26 11:00:00 15.9 3 Norte 14 Sudeste 0 1017 0.7 75
2018-09-26 10:00:00 13.6 11 Sudeste 18 Sudeste 0 1016.8 0.8 82
2018-09-26 09:00:00 11 13 Sudeste 16 Sudeste 0 1016.7 0.7 88
2018-09-26 08:00:00 10.5 14 Sur 17 Sur 0 1016.3 0.2 88
2018-09-26 07:00:00 11.2 13 Sudeste 18 Sudeste 0 1016 -0.4 86
2018-09-26 06:00:00 12 9 Sudeste 15 Este 0 1016 -0.9 82
2018-09-26 05:00:00 13.5 10 Este 18 Este 0 1016.1 -1.3 79
2018-09-26 04:00:00 13.8 9 Este 22 Sudeste 0 1016.4 -1.6 77
2018-09-26 03:00:00 14 14 Sudeste 23 Sudeste 0 1016.9 -1.4 76
2018-09-26 02:00:00 14.1 14 Sudeste 19 Sudeste 0 1017.4 -1.1 76
2018-09-26 01:00:00 14.8 14 Este 32 Este 0 1018 -0.4 73
2018-09-26 00:00:00 14.9 20 Este 35 Este 0 1018.3 0.2 74
2018-09-25 23:00:00 15 18 Este 36 Este 0 1018.5 0.9 72
2018-09-25 22:00:00 15.1 22 Este 46 Este 0 1018.4 1 74
2018-09-25 21:00:00 15.2 25 Nordeste 45 Nordeste 0 1018.1 0.5 76
2018-09-25 20:00:00 15.5 27 Nordeste 50 Nordeste 0 1017.6 -0.4 75
2018-09-25 19:00:00 16.1 30 Nordeste 55 Nordeste 0 1017.4 -0.7 73
2018-09-25 18:00:00 16.4 34 Nordeste 57 Nordeste 0 1017.6 -0.9 73
2018-09-25 17:00:00 16.6 37 Nordeste 59 Nordeste 0 1018 -0.9 72
2018-09-25 16:00:00 16.8 37 Nordeste 66 Nordeste 0 1018.1 -1.3 70
2018-09-25 15:00:00 16.9 40 Nordeste 65 Nordeste 0 1018.5 -1.4 69
2018-09-25 14:00:00 16.9 38 Nordeste 62 Nordeste 0 1018.9 -1.2 68
2018-09-25 13:00:00 17.1 29 Nordeste 47 Nordeste 0 1019.4 -0.3 65
2018-09-25 12:00:00 17.4 25 Nordeste 46 Este 0 1019.9 0.4 62
2018-09-25 11:00:00 17.3 23 Este 40 Nordeste 0 1020.1 0.9 56
2018-09-25 10:00:00 15.8 16 Nordeste 35 Este 0 1019.7 0.4 68
2018-09-25 09:00:00 14.9 17 Nordeste 39 Este 0 1019.5 0 68
2018-09-25 08:00:00 15.5 15 Este 36 Este 0 1019.2 -0.9 59
2018-09-25 07:00:00 15.5 14 Este 28 Sudeste 0 1019.3 -1.4 58
2018-09-25 06:00:00 15.6 15 Este 35 Sudeste 0 1019.5 -1.5 58
2018-09-25 05:00:00 15.4 17 Este 43 Sudeste 0 1020.1 -1.2 60
2018-09-25 04:00:00 15.1 17 Este 33 Este 0 1020.7 -1 61
2018-09-25 03:00:00 15.1 20 Este 38 Este 0 1021 -1.1 63
2018-09-25 02:00:00 15 19 Este 44 Nordeste 0 1021.3 -0.7 62
2018-09-25 01:00:00 15.2 25 Este 48 Este 0 1021.7 0.1 65
2018-09-25 00:00:00 15.3 24 Este 47 Este 0 1022.1 0.9 68
2018-09-24 23:00:00 15.3 32 Este 48 Este 0 1022 0.8 71
2018-09-24 22:00:00 15.7 34 Este 50 Este 0 1021.6 0.5 70
2018-09-24 21:00:00 15.7 29 Este 56 Este 0 1021.2 0 73
2018-09-24 20:00:00 15.8 30 Este 56 Este 0 1021.2 -0.4 75
2018-09-24 19:00:00 15.9 28 Nordeste 49 Nordeste 0 1021.1 -0.6 75
2018-09-24 18:00:00 16 28 Nordeste 51 Nordeste 0 1021.2 -0.7 75
2018-09-24 17:00:00 16.1 32 Nordeste 58 Nordeste 0 1021.6 -0.7 76
2018-09-24 16:00:00 16.5 33 Nordeste 60 Nordeste 0 1021.7 -1.3 75
2018-09-24 15:00:00 16.6 35 Nordeste 59 Nordeste 0 1021.9 -1.4 74
2018-09-24 14:00:00 16.5 35 Nordeste 63 Nordeste 0 1022.3 -1 76
2018-09-24 13:00:00 17.2 25 Nordeste 62 Este 0 1023 0 77
2018-09-24 12:00:00 16.2 24 Nordeste 50 Este 0 1023.3 0.7 81
2018-09-24 11:00:00 16.2 26 Nordeste 54 Este 0 1023.3 1.2 82
2018-09-24 10:00:00 16 30 Nordeste 50 Nordeste 0 1023 1.5 84
2018-09-24 09:00:00 15.7 29 Este 58 Este 0 1022.6 1.2 87
2018-09-24 08:00:00 15.4 29 Nordeste 56 Este 0.2 1022.1 0.6 92
2018-09-24 07:00:00 15.6 33 Nordeste 55 Nordeste 0.6 1021.5 -0.3 93
2018-09-24 06:00:00 16.1 29 Nordeste 49 Nordeste 1 1021.4 -0.4 93
2018-09-24 05:00:00 16.5 19 Nordeste 31 Nordeste 0.2 1021.5 -0.1 93
2018-09-24 04:00:00 16.5 18 Nordeste 32 Nordeste 0.6 1021.8 0.4 93
2018-09-24 03:00:00 16.6 17 Nordeste 45 Nordeste 0.8 1021.8 0.6 93
2018-09-24 02:00:00 16.9 18 Nordeste 46 Nordeste 1.6 1021.6 0.8 93
2018-09-24 01:00:00 17.9 15 Nordeste 26 Nordeste 1 1021.4 1 92
2018-09-24 00:00:00 18.2 11 Nordeste 23 Nordeste 1.2 1021.2 1.3 92
2018-09-23 23:00:00 18.5 14 Nordeste 24 Nordeste 1.4 1020.8 1.4 91
2018-09-23 22:00:00 19.2 5 Norte 15 Sudoeste 1.2 1020.4 1.5 90
2018-09-23 21:00:00 19.8 15 Oeste 22 Oeste 0 1019.9 1.3 89
2018-09-23 20:00:00 19.8 15 Oeste 23 Oeste 0 1019.4 1 86
2018-09-23 19:00:00 20 16 Oeste 26 Noroeste 0 1018.9 0.4 84
2018-09-23 18:00:00 20.4 17 Oeste 26 Oeste 0 1018.6 0.2 82
2018-09-23 17:00:00 21.1 19 Oeste 23 Oeste 0 1018.4 0 81
2018-09-23 16:00:00 20.7 17 Oeste 21 Oeste 0 1018.5 0.4 80
2018-09-23 15:00:00 21.3 10 Oeste 15 Oeste 0 1018.4 0.7 77
2018-09-23 14:00:00 21.9 13 Oeste 21 Oeste 0 1018.4 1 79
2018-09-23 13:00:00 20.8 12 Oeste 14 Oeste 0 1018.1 1.1 80
2018-09-23 12:00:00 19.5 7 Oeste 15 Oeste 0 1017.7 1.3 87
2018-09-23 11:00:00 18.7 10 Oeste 15 Oeste 0 1017.4 1.3 90
2018-09-23 10:00:00 18.2 11 Oeste 15 Oeste 0 1017 0.8 90
2018-09-23 09:00:00 18.2 10 Oeste 14 Sudoeste 0 1016.4 0.5 90
2018-09-23 08:00:00 17.8 13 Sudoeste 15 Oeste 0 1016.1 0.1 91
2018-09-23 07:00:00 16.5 3 Sudoeste 15 Sudeste 0 1016.2 -0.1 90
2018-09-23 06:00:00 17.1 11 Sur 15 Sur 0 1015.9 -0.8 90
2018-09-23 05:00:00 17.6 9 Sur 18 Sudeste 0 1016 -0.9 90
2018-09-23 04:00:00 18 15 Sudeste 21 Sudeste 0 1016.3 -0.8 89
2018-09-23 03:00:00 18.3 16 Sudeste 22 Sudeste 0 1016.7 -0.7 89
2018-09-23 02:00:00 18.6 15 Sudeste 24 Sudeste 0 1016.9 -0.4 88
2018-09-23 01:00:00 18.5 16 Sudeste 22 Sudeste 0 1017.1 -0.1 88
2018-09-23 00:00:00 18.5 10 Sudeste 13 Sudeste 0 1017.4 0.7 87
2018-09-22 23:00:00 18.5 13 Sur 15 Sur 0 1017.3 1 87
2018-09-22 22:00:00 19.7 8 Sudoeste 12 Oeste 0 1017.2 1.1 83
2018-09-22 21:00:00 19.9 9 Oeste 10 Oeste 0 1016.7 0.8 82
2018-09-22 20:00:00 20.6 6 Sudoeste 9 Sudoeste 0 1016.3 0.3 79
2018-09-22 19:00:00 22 6 Oeste 10 Oeste 0 1016.1 -0.2 76
2018-09-22 18:00:00 22.9 5 Oeste 10 Noroeste 0 1015.9 -0.4 72
2018-09-22 17:00:00 23.3 5 Oeste 11 Oeste 0 1016 -0.3 71
2018-09-22 16:00:00 22.9 6 Oeste 9 Oeste 0 1016.3 0 71
2018-09-22 15:00:00 22 7 Oeste 10 Oeste 0 1016.3 0.5 73
2018-09-22 14:00:00 21.5 6 Noroeste 9 Noroeste 0 1016.3 0.9 71
2018-09-22 13:00:00 21.7 4 Noroeste 12 Norte 0 1016.3 1.4 71
2018-09-22 12:00:00 20.9 6 Norte 9 Sur 0 1015.8 1.1 73
2018-09-22 11:00:00 22 9 Sur 15 Sur 0 1015.4 0.9 72
2018-09-22 10:00:00 19.2 12 Sudeste 19 Sudeste 0 1014.9 0.8 81
2018-09-22 09:00:00 16.5 14 Sudeste 18 Sudeste 0 1014.7 0.5 88
2018-09-22 08:00:00 16 13 Sudeste 19 Sudeste 0 1014.5 0.5 88
2018-09-22 07:00:00 15.8 12 Sur 18 Sudeste 0 1014.1 -0.6 89
2018-09-22 06:00:00 16 12 Sudeste 18 Sur 0 1014.2 -0.9 89
2018-09-22 05:00:00 15.4 10 Sur 16 Sur 0 1014 -1.4 90
2018-09-22 04:00:00 15.7 4 Este 15 Este 0 1014.7 -1.1 89
2018-09-22 03:00:00 16 9 Sudeste 14 Este 0 1015.1 -0.3 88
2018-09-22 02:00:00 16.7 11 Sudoeste 15 Sudoeste 0 1015.4 -0.2 87
2018-09-22 01:00:00 16.5 10 Oeste 14 Este 0 1015.8 -0.4 87
2018-09-22 00:00:00 17 12 Este 19 Este 0 1015.4 -0.6 85
2018-09-21 23:00:00 16.8 9 Este 22 Este 0 1015.6 0 85
2018-09-21 22:00:00 17 15 Este 23 Nordeste 0 1016.2 0.6 86
2018-09-21 21:00:00 17.2 11 Este 23 Nordeste 0 1016 0.4 84
2018-09-21 20:00:00 17.2 14 Nordeste 24 Este 0 1015.6 0 85
2018-09-21 19:00:00 17.3 12 Este 18 Este 0 1015.6 0.5 85
2018-09-21 18:00:00 17.1 7 Este 15 Nordeste 0 1015.6 0.5 89
2018-09-21 17:00:00 17.4 4 Oeste 11 Sur 0 1015.6 0.6 88
2018-09-21 16:00:00 18.1 5 Sudeste 10 Este 0 1015.1 0.1 85
2018-09-21 15:00:00 18 8 Este 14 Este 0 1015.1 0.5 86
2018-09-21 14:00:00 17.7 9 Este 14 Este 0 1015 1.2 87
2018-09-21 13:00:00 17.8 6 Norte 16 Norte 0 1015 2.3 88
2018-09-21 12:00:00 18.1 12 Oeste 29 Oeste 0 1014.6 3.1 88
2018-09-21 11:00:00 17.9 22 Oeste 30 Oeste 0 1013.8 2.8 88
2018-09-21 10:00:00 18.7 23 Oeste 39 Oeste 0 1012.7 2.4 82
2018-09-21 09:00:00 20.8 19 Oeste 41 Oeste 0 1011.5 1.4 60
2018-09-21 08:00:00 20.8 26 Oeste 44 Oeste 0 1011 1.6 59
2018-09-21 07:00:00 20.8 18 Sudoeste 37 Oeste 0 1010.3 0.7 58
2018-09-21 06:00:00 19.8 22 Oeste 30 Oeste 0 1010.1 0.4 64
2018-09-21 05:00:00 20.7 12 Sudoeste 31 Oeste 0 1009.4 -0.6 57
2018-09-21 04:00:00 19.8 22 Oeste 32 Sudoeste 0 1009.6 -0.7 63
2018-09-21 03:00:00 19.8 19 Oeste 28 Oeste 0 1009.7 -1 64
2018-09-21 02:00:00 19.8 20 Oeste 35 Sudoeste 0 1010 -0.6 64
2018-09-21 01:00:00 19.3 16 Sudoeste 25 Sudoeste 0 1010.3 0.2 59
2018-09-21 00:00:00 18.9 9 Sur 22 Sudoeste 0 1010.7 0.3 73
2018-09-20 23:00:00 18.3 13 Sudoeste 30 Sudeste 0 1010.6 -0.1 80
2018-09-20 22:00:00 18.2 23 Sudeste 33 Sudeste 0 1010.1 -0.8 82
2018-09-20 21:00:00 17.9 20 Sudeste 26 Sudeste 0 1010.4 0 84
2018-09-20 20:00:00 18.2 13 Sudeste 17 Sur 0 1010.7 0.3 83
2018-09-20 19:00:00 18.6 8 Sur 15 Sudoeste 0 1010.9 0 85
2018-09-20 18:00:00 18.8 7 Oeste 10 Noroeste 0 1010.4 -0.9 85
2018-09-20 17:00:00 20.3 6 Oeste 10 Oeste 0 1010.4 -1.2 76
2018-09-20 16:00:00 21 8 Oeste 12 Oeste 0 1010.9 -1.5 73
2018-09-20 15:00:00 21.1 6 Noroeste 8 Noroeste 0 1011.3 -1.1 70
2018-09-20 14:00:00 21.1 4 Noroeste 5 Noroeste 0 1011.6 -0.6 68
2018-09-20 13:00:00 19.7 5 Noroeste 6 Noroeste 0 1012.4 0.1 71
2018-09-20 12:00:00 20 4 Oeste 8 Oeste 0 1012.4 0 70
2018-09-20 11:00:00 20.1 3 Oeste 15 Sudeste 0 1012.2 0.1 70
2018-09-20 10:00:00 17.1 13 Sur 19 Sudeste 0 1012.3 -0.1 80
2018-09-20 09:00:00 14.7 15 Sudeste 20 Sudeste 0 1012.4 -0.2 86
2018-09-20 08:00:00 14.5 14 Sudeste 24 Sudeste 0 1012.1 -0.7 86
2018-09-20 07:00:00 14.4 14 Sudeste 22 Sudeste 0 1012.4 -0.9 86
2018-09-20 06:00:00 14.3 12 Sudeste 18 Sudeste 0 1012.6 -1.2 86
2018-09-20 05:00:00 14.2 13 Sudeste 18 Sudeste 0 1012.8 -1.3 86
2018-09-20 04:00:00 14.7 10 Sur 14 Sur 0 1013.3 -1.2 85
2018-09-20 03:00:00 15.7 8 Oeste 25 Sudeste 0 1013.8 -1.2 84
2018-09-20 02:00:00 15.6 21 Sudeste 30 Sudeste 0 1014.1 -1.2 83
2018-09-20 01:00:00 15.8 19 Sudeste 26 Sudeste 0 1014.5 -0.5 83
2018-09-20 00:00:00 16 21 Sudeste 26 Sudeste 0 1015 0.5 82